sensor_id;sensor_type;location;lat;lon;timestamp;pressure;altitude;pressure_sealevel;temperature;humidity
58239;BME280;44037;55.638;37.356;2022-10-16T00:01:08;100344.72;;;4.12;73.67
58239;BME280;44037;55.638;37.356;2022-10-16T00:03:37;100343.75;;;4.10;74.20
58239;BME280;44037;55.638;37.356;2022-10-16T00:06:05;100347.94;;;4.08;73.62
58239;BME280;44037;55.638;37.356;2022-10-16T00:08:33;100350.44;;;4.07;73.93
58239;BME280;44037;55.638;37.356;2022-10-16T00:11:03;100352.91;;;4.05;74.14
58239;BME280;44037;55.638;37.356;2022-10-16T00:13:32;100353.66;;;4.03;73.78
58239;BME280;44037;55.638;37.356;2022-10-16T00:16:00;100346.69;;;4.00;74.39
58239;BME280;44037;55.638;37.356;2022-10-16T00:18:28;100356.06;;;3.99;74.26
58239;BME280;44037;55.638;37.356;2022-10-16T00:21:00;100355.19;;;3.99;74.23
58239;BME280;44037;55.638;37.356;2022-10-16T00:23:46;100357.63;;;3.96;73.72
58239;BME280;44037;55.638;37.356;2022-10-16T00:26:18;100367.72;;;3.93;74.50
58239;BME280;44037;55.638;37.356;2022-10-16T00:28:46;100359.91;;;3.90;74.43
58239;BME280;44037;55.638;37.356;2022-10-16T00:31:13;100363.19;;;3.87;73.93
58239;BME280;44037;55.638;37.356;2022-10-16T00:33:41;100370.00;;;3.87;73.87
58239;BME280;44037;55.638;37.356;2022-10-16T00:36:10;100359.75;;;3.87;74.32
58239;BME280;44037;55.638;37.356;2022-10-16T00:38:37;100366.41;;;3.83;74.42
58239;BME280;44037;55.638;37.356;2022-10-16T00:41:05;100362.91;;;3.81;74.86
58239;BME280;44037;55.638;37.356;2022-10-16T00:43:37;100366.16;;;3.78;74.33
58239;BME280;44037;55.638;37.356;2022-10-16T00:46:13;100366.91;;;3.76;74.90
58239;BME280;44037;55.638;37.356;2022-10-16T00:48:43;100367.66;;;3.73;74.76
58239;BME280;44037;55.638;37.356;2022-10-16T00:51:12;100366.69;;;3.71;75.03
58239;BME280;44037;55.638;37.356;2022-10-16T00:53:39;100356.38;;;3.69;74.77
58239;BME280;44037;55.638;37.356;2022-10-16T00:56:06;100363.00;;;3.66;75.09
58239;BME280;44037;55.638;37.356;2022-10-16T00:58:35;100377.47;;;3.64;75.00
58239;BME280;44037;55.638;37.356;2022-10-16T01:01:02;100379.13;;;3.63;74.80
58239;BME280;44037;55.638;37.356;2022-10-16T01:03:31;100375.72;;;3.63;75.08
58239;BME280;44037;55.638;37.356;2022-10-16T01:06:07;100379.88;;;3.61;75.05
58239;BME280;44037;55.638;37.356;2022-10-16T01:08:45;100377.16;;;3.58;75.52
58239;BME280;44037;55.638;37.356;2022-10-16T01:11:20;100382.22;;;3.56;75.61
58239;BME280;44037;55.638;37.356;2022-10-16T01:13:53;100384.69;;;3.54;75.43
58239;BME280;44037;55.638;37.356;2022-10-16T01:16:25;100384.69;;;3.54;75.07
58239;BME280;44037;55.638;37.356;2022-10-16T01:18:58;100387.13;;;3.51;75.67
58239;BME280;44037;55.638;37.356;2022-10-16T01:21:30;100386.22;;;3.51;75.71
58239;BME280;44037;55.638;37.356;2022-10-16T01:24:05;100394.81;;;3.51;75.70
58239;BME280;44037;55.638;37.356;2022-10-16T01:26:41;100392.25;;;3.51;75.90
58239;BME280;44037;55.638;37.356;2022-10-16T01:29:18;100394.69;;;3.50;75.41
58239;BME280;44037;55.638;37.356;2022-10-16T01:31:51;100391.13;;;3.46;75.75
58239;BME280;44037;55.638;37.356;2022-10-16T01:34:27;100402.22;;;3.47;75.86
58239;BME280;44037;55.638;37.356;2022-10-16T01:37:03;100404.72;;;3.45;75.85
58239;BME280;44037;55.638;37.356;2022-10-16T01:39:34;100401.19;;;3.43;76.17
58239;BME280;44037;55.638;37.356;2022-10-16T01:42:06;100402.00;;;3.42;75.44
58239;BME280;44037;55.638;37.356;2022-10-16T01:44:37;100402.81;;;3.41;75.56
58239;BME280;44037;55.638;37.356;2022-10-16T01:47:07;100402.75;;;3.40;75.87
58239;BME280;44037;55.638;37.356;2022-10-16T01:49:38;100393.22;;;3.37;75.54
58239;BME280;44037;55.638;37.356;2022-10-16T01:52:09;100394.91;;;3.36;75.77
58239;BME280;44037;55.638;37.356;2022-10-16T01:54:40;100396.50;;;3.34;75.83
58239;BME280;44037;55.638;37.356;2022-10-16T01:57:10;100398.03;;;3.31;76.16
58239;BME280;44037;55.638;37.356;2022-10-16T01:59:45;100403.88;;;3.28;75.64
58239;BME280;44037;55.638;37.356;2022-10-16T02:02:13;100399.50;;;3.26;75.83
58239;BME280;44037;55.638;37.356;2022-10-16T02:04:44;100407.00;;;3.22;75.97
58239;BME280;44037;55.638;37.356;2022-10-16T02:07:12;100407.75;;;3.20;76.25
58239;BME280;44037;55.638;37.356;2022-10-16T02:09:40;100409.34;;;3.18;76.54
58239;BME280;44037;55.638;37.356;2022-10-16T02:12:10;100404.13;;;3.16;76.61
58239;BME280;44037;55.638;37.356;2022-10-16T02:14:41;100407.47;;;3.15;76.26
58239;BME280;44037;55.638;37.356;2022-10-16T02:17:14;100398.88;;;3.13;76.40
58239;BME280;44037;55.638;37.356;2022-10-16T02:19:41;100401.34;;;3.12;76.60
58239;BME280;44037;55.638;37.356;2022-10-16T02:22:12;100406.38;;;3.10;76.78
58239;BME280;44037;55.638;37.356;2022-10-16T02:24:48;100399.44;;;3.07;76.49
58239;BME280;44037;55.638;37.356;2022-10-16T02:27:22;100409.69;;;3.07;76.26
58239;BME280;44037;55.638;37.356;2022-10-16T02:29:56;100409.69;;;3.07;76.84
58239;BME280;44037;55.638;37.356;2022-10-16T02:32:30;100407.91;;;3.06;76.47
58239;BME280;44037;55.638;37.356;2022-10-16T02:34:59;100410.38;;;3.05;76.76
58239;BME280;44037;55.638;37.356;2022-10-16T02:37:27;100413.75;;;3.04;76.65
58239;BME280;44037;55.638;37.356;2022-10-16T02:39:56;100415.44;;;3.03;76.75
58239;BME280;44037;55.638;37.356;2022-10-16T02:42:28;100419.66;;;3.03;76.58
58239;BME280;44037;55.638;37.356;2022-10-16T02:44:56;100414.47;;;3.01;76.83
58239;BME280;44037;55.638;37.356;2022-10-16T02:47:23;100416.06;;;2.99;77.06
58239;BME280;44037;55.638;37.356;2022-10-16T02:49:50;100415.19;;;2.99;76.80
58239;BME280;44037;55.638;37.356;2022-10-16T02:52:17;100420.22;;;2.97;77.06
58239;BME280;44037;55.638;37.356;2022-10-16T02:54:45;100415.81;;;2.95;77.03
58239;BME280;44037;55.638;37.356;2022-10-16T02:57:12;100418.22;;;2.91;76.98
58239;BME280;44037;55.638;37.356;2022-10-16T02:59:39;100415.59;;;2.90;76.85
58239;BME280;44037;55.638;37.356;2022-10-16T03:02:07;100412.00;;;2.86;77.22
58239;BME280;44037;55.638;37.356;2022-10-16T03:04:34;100420.47;;;2.85;77.42
58239;BME280;44037;55.638;37.356;2022-10-16T03:07:02;100421.28;;;2.84;77.51
58239;BME280;44037;55.638;37.356;2022-10-16T03:09:29;100417.81;;;2.84;77.25
58239;BME280;44037;55.638;37.356;2022-10-16T03:11:56;100422.84;;;2.82;77.43
58239;BME280;44037;55.638;37.356;2022-10-16T03:14:23;100421.09;;;2.81;77.24
58239;BME280;44037;55.638;37.356;2022-10-16T03:16:51;100423.59;;;2.80;77.77
58239;BME280;44037;55.638;37.356;2022-10-16T03:19:19;100434.63;;;2.79;77.26
58239;BME280;44037;55.638;37.356;2022-10-16T03:21:46;100432.78;;;2.76;77.48
58239;BME280;44037;55.638;37.356;2022-10-16T03:24:13;100431.03;;;2.75;77.69
58239;BME280;44037;55.638;37.356;2022-10-16T03:26:41;100440.28;;;2.73;77.76
58239;BME280;44037;55.638;37.356;2022-10-16T03:29:08;100428.22;;;2.70;77.69
58239;BME280;44037;55.638;37.356;2022-10-16T03:31:35;100442.69;;;2.70;77.43
58239;BME280;44037;55.638;37.356;2022-10-16T03:34:02;100440.91;;;2.69;77.74
58239;BME280;44037;55.638;37.356;2022-10-16T03:36:30;100440.84;;;2.67;77.75
58239;BME280;44037;55.638;37.356;2022-10-16T03:38:57;100438.13;;;2.64;77.78
58239;BME280;44037;55.638;37.356;2022-10-16T03:41:24;100440.75;;;2.66;77.76
58239;BME280;44037;55.638;37.356;2022-10-16T03:43:51;100438.91;;;2.63;78.29
58239;BME280;44037;55.638;37.356;2022-10-16T03:46:18;100445.72;;;2.63;78.11
58239;BME280;44037;55.638;37.356;2022-10-16T03:48:46;100437.25;;;2.64;78.14
58239;BME280;44037;55.638;37.356;2022-10-16T03:51:13;100439.72;;;2.62;78.19
58239;BME280;44037;55.638;37.356;2022-10-16T03:53:41;100435.31;;;2.59;78.27
58239;BME280;44037;55.638;37.356;2022-10-16T03:56:09;100451.63;;;2.61;78.10
58239;BME280;44037;55.638;37.356;2022-10-16T03:58:36;100444.81;;;2.62;78.32
58239;BME280;44037;55.638;37.356;2022-10-16T04:01:03;100446.50;;;2.61;78.51
58239;BME280;44037;55.638;37.356;2022-10-16T04:03:30;100447.31;;;2.60;78.41
58239;BME280;44037;55.638;37.356;2022-10-16T04:05:57;100437.94;;;2.61;78.44
58239;BME280;44037;55.638;37.356;2022-10-16T04:08:24;100450.75;;;2.61;78.57
58239;BME280;44037;55.638;37.356;2022-10-16T04:10:53;100446.50;;;2.61;78.29
58239;BME280;44037;55.638;37.356;2022-10-16T04:13:20;100446.50;;;2.61;77.93
58239;BME280;44037;55.638;37.356;2022-10-16T04:15:47;100444.81;;;2.62;78.09
58239;BME280;44037;55.638;37.356;2022-10-16T04:18:14;100446.69;;;2.65;78.15
58239;BME280;44037;55.638;37.356;2022-10-16T04:20:41;100442.50;;;2.67;78.28
58239;BME280;44037;55.638;37.356;2022-10-16T04:23:08;100443.59;;;2.70;78.07
58239;BME280;44037;55.638;37.356;2022-10-16T04:25:35;100444.63;;;2.74;78.45
58239;BME280;44037;55.638;37.356;2022-10-16T04:28:04;100453.25;;;2.76;78.27
58239;BME280;44037;55.638;37.356;2022-10-16T04:30:31;100453.34;;;2.78;77.94
58239;BME280;44037;55.638;37.356;2022-10-16T04:32:59;100454.31;;;2.80;77.67
58239;BME280;44037;55.638;37.356;2022-10-16T04:35:26;100455.34;;;2.83;77.84
58239;BME280;44037;55.638;37.356;2022-10-16T04:37:53;100453.03;;;2.88;78.03
58239;BME280;44037;55.638;37.356;2022-10-16T04:40:20;100460.94;;;2.92;77.83
58239;BME280;44037;55.638;37.356;2022-10-16T04:42:47;100465.44;;;2.97;77.74
58239;BME280;44037;55.638;37.356;2022-10-16T04:45:15;100457.03;;;2.99;77.45
58239;BME280;44037;55.638;37.356;2022-10-16T04:47:43;100457.19;;;3.02;77.42
58239;BME280;44037;55.638;37.356;2022-10-16T04:50:10;100461.75;;;3.08;77.25
58239;BME280;44037;55.638;37.356;2022-10-16T04:52:37;100467.28;;;3.16;77.95
58239;BME280;44037;55.638;37.356;2022-10-16T04:55:05;100465.91;;;3.22;78.12
58239;BME280;44037;55.638;37.356;2022-10-16T04:57:32;100468.88;;;3.30;77.39
58239;BME280;44037;55.638;37.356;2022-10-16T05:00:00;100469.28;;;3.38;77.24
58239;BME280;44037;55.638;37.356;2022-10-16T05:02:30;100459.34;;;3.44;77.02
58239;BME280;44037;55.638;37.356;2022-10-16T05:04:58;100467.47;;;3.53;76.91
58239;BME280;44037;55.638;37.356;2022-10-16T05:07:25;100470.53;;;3.63;76.68
58239;BME280;44037;55.638;37.356;2022-10-16T05:09:52;100465.84;;;3.72;76.60
58239;BME280;44037;55.638;37.356;2022-10-16T05:12:19;100461.13;;;3.80;76.19
58239;BME280;44037;55.638;37.356;2022-10-16T05:14:46;100466.75;;;3.91;75.92
58239;BME280;44037;55.638;37.356;2022-10-16T05:17:13;100469.78;;;4.00;75.44
58239;BME280;44037;55.638;37.356;2022-10-16T05:19:41;100471.09;;;4.10;75.19
58239;BME280;44037;55.638;37.356;2022-10-16T05:22:08;100472.44;;;4.20;75.15
58239;BME280;44037;55.638;37.356;2022-10-16T05:24:35;100472.00;;;4.28;74.70
58239;BME280;44037;55.638;37.356;2022-10-16T05:27:02;100469.88;;;4.38;74.25
58239;BME280;44037;55.638;37.356;2022-10-16T05:29:29;100476.25;;;4.46;74.12
58239;BME280;44037;55.638;37.356;2022-10-16T05:31:57;100468.09;;;4.55;74.32
58239;BME280;44037;55.638;37.356;2022-10-16T05:34:24;100470.22;;;4.64;73.36
58239;BME280;44037;55.638;37.356;2022-10-16T05:36:53;100473.13;;;4.71;73.40
58239;BME280;44037;55.638;37.356;2022-10-16T05:39:20;100471.78;;;4.80;73.21
58239;BME280;44037;55.638;37.356;2022-10-16T05:41:49;100473.84;;;4.87;72.63
58239;BME280;44037;55.638;37.356;2022-10-16T05:44:16;100472.50;;;4.95;72.02
58239;BME280;44037;55.638;37.356;2022-10-16T05:46:43;100466.03;;;5.03;72.22
58239;BME280;44037;55.638;37.356;2022-10-16T05:49:10;100468.09;;;5.12;71.58
58239;BME280;44037;55.638;37.356;2022-10-16T05:51:37;100470.22;;;5.21;71.92
58239;BME280;44037;55.638;37.356;2022-10-16T05:54:06;100479.16;;;5.29;71.41
58239;BME280;44037;55.638;37.356;2022-10-16T05:56:33;100484.59;;;5.37;70.97
58239;BME280;44037;55.638;37.356;2022-10-16T05:59:00;100484.06;;;5.44;70.69
58239;BME280;44037;55.638;37.356;2022-10-16T06:01:27;100487.84;;;5.52;70.80
58239;BME280;44037;55.638;37.356;2022-10-16T06:03:54;100480.47;;;5.60;69.74
58239;BME280;44037;55.638;37.356;2022-10-16T06:06:23;100486.88;;;5.70;69.77
58239;BME280;44037;55.638;37.356;2022-10-16T06:08:52;100485.50;;;5.78;69.79
58239;BME280;44037;55.638;37.356;2022-10-16T06:11:22;100490.91;;;5.84;69.49
58239;BME280;44037;55.638;37.356;2022-10-16T06:13:50;100487.63;;;5.89;68.64
58239;BME280;44037;55.638;37.356;2022-10-16T06:16:17;100499.06;;;5.95;68.46
58239;BME280;44037;55.638;37.356;2022-10-16T06:18:46;100496.72;;;6.00;67.89
58239;BME280;44037;55.638;37.356;2022-10-16T06:21:16;100494.34;;;6.05;68.25
58239;BME280;44037;55.638;37.356;2022-10-16T06:23:44;100492.88;;;6.11;68.36
58239;BME280;44037;55.638;37.356;2022-10-16T06:26:14;100492.34;;;6.19;67.58
58239;BME280;44037;55.638;37.356;2022-10-16T06:28:43;100494.31;;;6.26;68.31
58239;BME280;44037;55.638;37.356;2022-10-16T06:31:11;100499.72;;;6.32;68.22
58239;BME280;44037;55.638;37.356;2022-10-16T06:33:38;100491.50;;;6.41;67.45
58239;BME280;44037;55.638;37.356;2022-10-16T06:36:07;100500.34;;;6.48;67.32
58239;BME280;44037;55.638;37.356;2022-10-16T06:38:35;100501.47;;;6.54;66.85
58239;BME280;44037;55.638;37.356;2022-10-16T06:41:02;100497.50;;;6.63;67.53
58239;BME280;44037;55.638;37.356;2022-10-16T06:43:30;100504.69;;;6.71;67.34
58239;BME280;44037;55.638;37.356;2022-10-16T06:46:00;100495.59;;;6.81;66.75
58239;BME280;44037;55.638;37.356;2022-10-16T06:48:27;100495.06;;;6.90;66.92
58239;BME280;44037;55.638;37.356;2022-10-16T06:50:56;100500.66;;;7.01;66.70
58239;BME280;44037;55.638;37.356;2022-10-16T06:53:23;100498.41;;;7.10;66.53
58239;BME280;44037;55.638;37.356;2022-10-16T06:55:51;100498.72;;;7.19;65.85
58239;BME280;44037;55.638;37.356;2022-10-16T06:58:18;100505.09;;;7.29;65.32
58239;BME280;44037;55.638;37.356;2022-10-16T07:00:45;100502.81;;;7.37;65.26
58239;BME280;44037;55.638;37.356;2022-10-16T07:03:14;100506.53;;;7.45;65.28
58239;BME280;44037;55.638;37.356;2022-10-16T07:05:42;100503.38;;;7.52;65.07
58239;BME280;44037;55.638;37.356;2022-10-16T07:08:09;100497.66;;;7.61;64.54
58239;BME280;44037;55.638;37.356;2022-10-16T07:10:36;100501.38;;;7.69;64.58
58239;BME280;44037;55.638;37.356;2022-10-16T07:13:03;100501.69;;;7.79;64.15
58239;BME280;44037;55.638;37.356;2022-10-16T07:15:33;100496.81;;;7.88;64.02
58239;BME280;44037;55.638;37.356;2022-10-16T07:18:00;100504.94;;;7.99;63.87
58239;BME280;44037;55.638;37.356;2022-10-16T07:20:29;100498.31;;;8.07;63.33
58239;BME280;44037;55.638;37.356;2022-10-16T07:22:56;100500.31;;;8.16;63.37
58239;BME280;44037;55.638;37.356;2022-10-16T07:25:23;100511.00;;;8.27;63.16
58239;BME280;44037;55.638;37.356;2022-10-16T07:27:50;100504.38;;;8.35;61.88
58239;BME280;44037;55.638;37.356;2022-10-16T07:30:17;100510.72;;;8.45;62.76
58239;BME280;44037;55.638;37.356;2022-10-16T07:32:44;100505.88;;;8.54;62.28
58239;BME280;44037;55.638;37.356;2022-10-16T07:35:11;100508.78;;;8.65;61.98
58239;BME280;44037;55.638;37.356;2022-10-16T07:37:43;100509.06;;;8.74;61.77
58239;BME280;44037;55.638;37.356;2022-10-16T07:40:11;100502.41;;;8.83;60.96
58239;BME280;44037;55.638;37.356;2022-10-16T07:42:38;100506.13;;;8.91;60.81
58239;BME280;44037;55.638;37.356;2022-10-16T07:45:06;100502.78;;;8.95;60.85
58239;BME280;44037;55.638;37.356;2022-10-16T07:47:33;100511.66;;;9.03;60.57
58239;BME280;44037;55.638;37.356;2022-10-16T07:50:00;100502.38;;;9.10;60.21
58239;BME280;44037;55.638;37.356;2022-10-16T07:52:29;100508.59;;;9.17;60.11
58239;BME280;44037;55.638;37.356;2022-10-16T07:54:57;100506.16;;;9.23;59.95
58239;BME280;44037;55.638;37.356;2022-10-16T07:57:24;100498.53;;;9.28;59.49
58239;BME280;44037;55.638;37.356;2022-10-16T07:59:51;100502.97;;;9.32;59.63
58239;BME280;44037;55.638;37.356;2022-10-16T08:02:18;100500.50;;;9.36;59.15
58239;BME280;44037;55.638;37.356;2022-10-16T08:04:46;100504.97;;;9.42;59.76
58239;BME280;44037;55.638;37.356;2022-10-16T08:07:14;100506.03;;;9.49;59.54
58239;BME280;44037;55.638;37.356;2022-10-16T08:09:41;100504.53;;;9.57;59.26
58239;BME280;44037;55.638;37.356;2022-10-16T08:12:09;100501.28;;;9.64;58.54
58239;BME280;44037;55.638;37.356;2022-10-16T08:14:36;100493.66;;;9.71;58.51
58239;BME280;44037;55.638;37.356;2022-10-16T08:17:03;100493.00;;;9.78;58.13
58239;BME280;44037;55.638;37.356;2022-10-16T08:19:30;100489.72;;;9.85;58.12
58239;BME280;44037;55.638;37.356;2022-10-16T08:22:00;100493.31;;;9.90;57.68
58239;BME280;44037;55.638;37.356;2022-10-16T08:24:27;100504.63;;;9.94;57.04
58239;BME280;44037;55.638;37.356;2022-10-16T08:26:56;100496.09;;;9.98;57.32
58239;BME280;44037;55.638;37.356;2022-10-16T08:29:24;100496.22;;;10.03;56.63
58239;BME280;44037;55.638;37.356;2022-10-16T08:31:51;100494.63;;;10.08;56.75
58239;BME280;44037;55.638;37.356;2022-10-16T08:34:18;100493.03;;;10.14;57.12
58239;BME280;44037;55.638;37.356;2022-10-16T08:36:46;100490.63;;;10.22;56.67
58239;BME280;44037;55.638;37.356;2022-10-16T08:39:13;100494.25;;;10.29;56.23
58239;BME280;44037;55.638;37.356;2022-10-16T08:42:19;100485.78;;;10.36;56.67
58239;BME280;44037;55.638;37.356;2022-10-16T08:45:13;100484.31;;;10.46;55.83
58239;BME280;44037;55.638;37.356;2022-10-16T08:47:49;100488.00;;;10.56;55.65
58239;BME280;44037;55.638;37.356;2022-10-16T08:50:23;100488.16;;;10.64;55.34
58239;BME280;44037;55.638;37.356;2022-10-16T08:52:51;100481.44;;;10.72;54.42
58239;BME280;44037;55.638;37.356;2022-10-16T08:55:30;100482.44;;;10.79;54.86
58239;BME280;44037;55.638;37.356;2022-10-16T08:57:59;100484.34;;;10.86;54.08
58239;BME280;44037;55.638;37.356;2022-10-16T09:00:28;100476.66;;;10.90;53.45
58239;BME280;44037;55.638;37.356;2022-10-16T09:03:03;100477.63;;;10.96;53.78
58239;BME280;44037;55.638;37.356;2022-10-16T09:06:10;100479.53;;;11.04;53.39
58239;BME280;44037;55.638;37.356;2022-10-16T09:08:49;100483.19;;;11.14;52.88
58239;BME280;44037;55.638;37.356;2022-10-16T09:11:22;100485.91;;;11.20;52.40
58239;BME280;44037;55.638;37.356;2022-10-16T09:14:00;100487.75;;;11.26;52.92
58239;BME280;44037;55.638;37.356;2022-10-16T09:16:36;100480.06;;;11.32;51.97
58239;BME280;44037;55.638;37.356;2022-10-16T09:19:09;100478.47;;;11.37;50.98
58239;BME280;44037;55.638;37.356;2022-10-16T09:21:41;100474.19;;;11.41;50.50
58239;BME280;44037;55.638;37.356;2022-10-16T09:24:12;100481.13;;;11.42;50.45
58239;BME280;44037;55.638;37.356;2022-10-16T09:26:40;100479.47;;;11.44;50.26
58239;BME280;44037;55.638;37.356;2022-10-16T09:29:10;100475.19;;;11.46;49.78
58239;BME280;44037;55.638;37.356;2022-10-16T09:31:40;100475.25;;;11.51;50.38
58239;BME280;44037;55.638;37.356;2022-10-16T09:34:24;100473.59;;;11.55;50.39
58239;BME280;44037;55.638;37.356;2022-10-16T09:36:53;100473.72;;;11.62;50.93
58239;BME280;44037;55.638;37.356;2022-10-16T09:39:20;100469.53;;;11.69;49.81
58239;BME280;44037;55.638;37.356;2022-10-16T09:41:47;100474.81;;;11.75;49.47
58239;BME280;44037;55.638;37.356;2022-10-16T09:44:23;100470.59;;;11.80;49.77
58239;BME280;44037;55.638;37.356;2022-10-16T09:47:02;100469.81;;;11.88;50.17
58239;BME280;44037;55.638;37.356;2022-10-16T09:49:29;100460.47;;;11.96;49.91
58239;BME280;44037;55.638;37.356;2022-10-16T09:52:03;100458.81;;;12.00;49.51
58239;BME280;44037;55.638;37.356;2022-10-16T09:54:31;100464.94;;;12.05;48.24
58239;BME280;44037;55.638;37.356;2022-10-16T09:57:04;100464.09;;;12.06;48.11
58239;BME280;44037;55.638;37.356;2022-10-16T09:59:32;100451.16;;;12.07;48.49
58239;BME280;44037;55.638;37.356;2022-10-16T10:02:10;100455.56;;;12.13;48.29
58239;BME280;44037;55.638;37.356;2022-10-16T10:04:41;100462.59;;;12.20;47.95
58239;BME280;44037;55.638;37.356;2022-10-16T10:07:17;100453.97;;;12.23;48.04
58239;BME280;44037;55.638;37.356;2022-10-16T10:09:45;100454.91;;;12.26;47.70
58239;BME280;44037;55.638;37.356;2022-10-16T10:12:21;100447.13;;;12.26;47.67
58239;BME280;44037;55.638;37.356;2022-10-16T10:14:49;100450.63;;;12.32;47.63
58239;BME280;44037;55.638;37.356;2022-10-16T10:17:21;100448.09;;;12.35;47.73
58239;BME280;44037;55.638;37.356;2022-10-16T10:19:52;100449.00;;;12.37;47.92
58239;BME280;44037;55.638;37.356;2022-10-16T10:22:29;100444.69;;;12.39;47.67
58239;BME280;44037;55.638;37.356;2022-10-16T10:25:15;100447.31;;;12.40;47.17
58239;BME280;44037;55.638;37.356;2022-10-16T10:27:53;100448.22;;;12.42;46.59
58239;BME280;44037;55.638;37.356;2022-10-16T10:30:31;100443.88;;;12.43;47.42
58239;BME280;44037;55.638;37.356;2022-10-16T10:33:21;100451.72;;;12.44;47.11
58239;BME280;44037;55.638;37.356;2022-10-16T10:35:56;100449.13;;;12.48;46.98
58239;BME280;44037;55.638;37.356;2022-10-16T10:38:32;100451.72;;;12.48;46.31
58239;BME280;44037;55.638;37.356;2022-10-16T10:41:14;100444.81;;;12.47;46.81
58239;BME280;44037;55.638;37.356;2022-10-16T10:43:56;100437.03;;;12.48;47.21
58239;BME280;44037;55.638;37.356;2022-10-16T10:46:32;100436.19;;;12.51;47.35
58239;BME280;44037;55.638;37.356;2022-10-16T10:49:19;100441.47;;;12.57;47.31
58239;BME280;44037;55.638;37.356;2022-10-16T10:51:57;100437.19;;;12.62;47.48
58239;BME280;44037;55.638;37.356;2022-10-16T10:54:34;100430.34;;;12.66;46.83
58239;BME280;44037;55.638;37.356;2022-10-16T10:57:10;100422.50;;;12.64;46.33
58239;BME280;44037;55.638;37.356;2022-10-16T11:00:01;100427.69;;;12.64;46.83
58239;BME280;44037;55.638;37.356;2022-10-16T11:02:36;100424.25;;;12.65;47.15
58239;BME280;44037;55.638;37.356;2022-10-16T11:05:38;100419.94;;;12.67;47.00
58239;BME280;44037;55.638;37.356;2022-10-16T11:08:11;100423.47;;;12.71;47.21
58239;BME280;44037;55.638;37.356;2022-10-16T11:10:46;100423.50;;;12.74;46.41
58239;BME280;44037;55.638;37.356;2022-10-16T11:13:23;100421.81;;;12.76;47.00
58239;BME280;44037;55.638;37.356;2022-10-16T11:15:55;100427.00;;;12.79;46.37
58239;BME280;44037;55.638;37.356;2022-10-16T11:18:27;100422.72;;;12.80;46.33
58239;BME280;44037;55.638;37.356;2022-10-16T11:21:02;100421.00;;;12.82;46.30
58239;BME280;44037;55.638;37.356;2022-10-16T11:23:33;100420.16;;;12.86;46.20
58239;BME280;44037;55.638;37.356;2022-10-16T11:26:04;100413.25;;;12.88;46.32
58239;BME280;44037;55.638;37.356;2022-10-16T11:28:37;100414.13;;;12.87;46.33
58239;BME280;44037;55.638;37.356;2022-10-16T11:31:11;100416.75;;;12.88;45.95
58239;BME280;44037;55.638;37.356;2022-10-16T11:33:44;100411.56;;;12.90;46.50
58239;BME280;44037;55.638;37.356;2022-10-16T11:36:17;100419.41;;;12.92;45.64
58239;BME280;44037;55.638;37.356;2022-10-16T11:38:53;100417.66;;;12.90;46.38
58239;BME280;44037;55.638;37.356;2022-10-16T11:41:24;100414.16;;;12.90;46.02
58239;BME280;44037;55.638;37.356;2022-10-16T11:44:12;100410.69;;;12.89;45.75
58239;BME280;44037;55.638;37.356;2022-10-16T11:46:48;100408.94;;;12.88;45.52
58239;BME280;44037;55.638;37.356;2022-10-16T11:49:19;100410.69;;;12.89;45.95
58239;BME280;44037;55.638;37.356;2022-10-16T11:51:56;100414.13;;;12.87;46.22
58239;BME280;44037;55.638;37.356;2022-10-16T11:54:31;100407.16;;;12.84;45.55
58239;BME280;44037;55.638;37.356;2022-10-16T11:57:08;100404.50;;;12.81;45.35
58239;BME280;44037;55.638;37.356;2022-10-16T11:59:43;100402.75;;;12.80;45.88
58239;BME280;44037;55.638;37.356;2022-10-16T12:02:31;100405.34;;;12.79;45.49
58239;BME280;44037;55.638;37.356;2022-10-16T12:05:11;100411.41;;;12.78;45.94
58239;BME280;44037;55.638;37.356;2022-10-16T12:07:48;100410.50;;;12.75;45.43
58239;BME280;44037;55.638;37.356;2022-10-16T12:10:21;100412.22;;;12.73;45.58
58239;BME280;44037;55.638;37.356;2022-10-16T12:12:48;100408.75;;;12.73;45.99
58239;BME280;44037;55.638;37.356;2022-10-16T12:15:21;100406.16;;;12.71;45.70
58239;BME280;44037;55.638;37.356;2022-10-16T12:17:49;100400.09;;;12.72;46.08
58239;BME280;44037;55.638;37.356;2022-10-16T12:20:25;100395.75;;;12.71;46.13
58239;BME280;44037;55.638;37.356;2022-10-16T12:22:56;100388.81;;;12.72;45.55
58239;BME280;44037;55.638;37.356;2022-10-16T12:25:26;100393.16;;;12.71;45.86
58239;BME280;44037;55.638;37.356;2022-10-16T12:27:57;100388.75;;;12.69;45.93
58239;BME280;44037;55.638;37.356;2022-10-16T12:30:26;100396.56;;;12.67;46.36
58239;BME280;44037;55.638;37.356;2022-10-16T12:32:56;100385.25;;;12.64;46.79
58239;BME280;44037;55.638;37.356;2022-10-16T12:35:26;100386.09;;;12.63;46.25
58239;BME280;44037;55.638;37.356;2022-10-16T12:38:05;100397.34;;;12.63;45.77
58239;BME280;44037;55.638;37.356;2022-10-16T12:40:34;100392.16;;;12.62;46.49
58239;BME280;44037;55.638;37.356;2022-10-16T12:43:12;100389.53;;;12.60;46.65
58239;BME280;44037;55.638;37.356;2022-10-16T12:45:39;100386.91;;;12.58;46.20
58239;BME280;44037;55.638;37.356;2022-10-16T12:48:20;100386.84;;;12.55;46.11
58239;BME280;44037;55.638;37.356;2022-10-16T12:50:48;100389.44;;;12.54;45.89
58239;BME280;44037;55.638;37.356;2022-10-16T12:53:21;100382.47;;;12.50;45.96
58239;BME280;44037;55.638;37.356;2022-10-16T12:55:56;100381.53;;;12.44;46.51
58239;BME280;44037;55.638;37.356;2022-10-16T12:58:37;100373.66;;;12.38;46.35
58239;BME280;44037;55.638;37.356;2022-10-16T13:01:17;100372.75;;;12.35;46.81
58239;BME280;44037;55.638;37.356;2022-10-16T13:04:15;100381.34;;;12.31;47.11